Time;durP1;ratioP1;P1;durP2;ratioP2;P2;SDS_P1;SDS_P2;PMS_P1;PMS_P2;Temp;Humidity;BMP_temperature;BMP_pressure;BME280_temperature;BME280_humidity;BME280_pressure;Samples;Min_cycle;Max_cycle;Signal;HPM_P1;HPM_P2
2021/07/29 00:00:41;;;;;;;4.80;4.30;;;;;;;26.89;37.77;100162.84;5113469;28;20112;-74
2021/07/29 00:03:07;;;;;;;4.85;4.30;;;;;;;26.80;38.30;100163.66;5129939;27;20534;-74
2021/07/29 00:05:35;;;;;;;4.95;4.45;;;;;;;26.74;38.20;100161.91;5112697;28;20032;-75
2021/07/29 00:08:01;;;;;;;4.85;4.32;;;;;;;26.61;38.63;100150.66;5129594;27;20023;-73
2021/07/29 00:10:30;;;;;;;7.28;4.47;;;;;;;26.50;39.04;100153.19;5113280;28;20032;-74
2021/07/29 00:12:56;;;;;;;4.72;4.22;;;;;;;26.48;39.17;100158.56;5112459;28;20493;-74
2021/07/29 00:15:22;;;;;;;5.82;4.82;;;;;;;26.40;38.73;100163.75;5112784;28;20056;-73
2021/07/29 00:20:17;;;;;;;5.82;4.85;;;;;;;26.37;38.24;100148.38;5114535;28;20043;-74
2021/07/29 00:22:44;;;;;;;4.90;4.38;;;;;;;26.34;38.97;100160.72;5113488;28;20050;-74
2021/07/29 00:25:13;;;;;;;7.70;4.40;;;;;;;26.25;38.90;100157.06;5129702;28;20031;-74
2021/07/29 00:27:40;;;;;;;6.90;4.50;;;;;;;26.19;39.23;100156.09;5112871;28;20027;-74
2021/07/29 00:30:06;;;;;;;5.88;4.25;;;;;;;26.23;38.62;100153.88;5114412;28;20032;-73
2021/07/29 00:32:32;;;;;;;5.50;4.95;;;;;;;26.26;38.80;100159.44;5109294;28;20027;-75
2021/07/29 00:34:58;;;;;;;9.25;4.47;;;;;;;26.26;38.80;100155.78;5112807;28;20080;-74
2021/07/29 00:37:24;;;;;;;5.07;4.57;;;;;;;26.23;39.11;100145.34;5112739;28;20539;-74
2021/07/29 00:39:49;;;;;;;5.95;5.35;;;;;;;26.16;39.75;100148.50;5112758;28;20028;-73
2021/07/29 00:42:15;;;;;;;5.38;4.75;;;;;;;26.17;39.33;100150.06;5129631;28;20389;-74
2021/07/29 00:44:41;;;;;;;5.90;4.45;;;;;;;26.12;39.35;100142.94;5112354;28;20032;-73
2021/07/29 00:47:07;;;;;;;5.70;4.32;;;;;;;26.22;39.35;100146.59;5112398;28;20027;-75
2021/07/29 00:49:34;;;;;;;5.63;4.40;;;;;;;26.25;39.25;100139.94;5112455;28;20070;-74
2021/07/29 00:52:00;;;;;;;9.07;4.40;;;;;;;26.25;39.46;100146.44;5113692;28;20036;-74
2021/07/29 00:54:29;;;;;;;10.38;4.43;;;;;;;26.32;39.36;100142.50;5112864;28;20046;-74
2021/07/29 00:56:56;;;;;;;5.63;4.90;;;;;;;26.36;38.98;100140.28;5112629;28;20032;-74
2021/07/29 00:59:21;;;;;;;5.22;4.55;;;;;;;26.44;39.17;100138.75;5112270;28;20028;-74
2021/07/29 01:01:47;;;;;;;7.35;5.03;;;;;;;26.32;39.49;100134.75;5112509;28;20024;-73
2021/07/29 01:04:13;;;;;;;6.80;5.03;;;;;;;26.25;39.39;100131.38;5112750;28;20028;-74
2021/07/29 01:06:39;;;;;;;5.28;4.78;;;;;;;26.17;39.79;100135.81;5095721;28;20059;-74
2021/07/29 01:09:08;;;;;;;12.52;5.60;;;;;;;26.17;39.85;100132.97;5112258;28;20036;-73
2021/07/29 01:11:39;;;;;;;6.50;5.38;;;;;;;26.33;39.38;100129.81;5112199;28;20501;-74
2021/07/29 01:14:05;;;;;;;5.45;4.95;;;;;;;26.28;39.63;100121.91;5112129;28;20030;-74
2021/07/29 01:16:31;;;;;;;7.18;5.00;;;;;;;26.18;39.54;100128.84;5111911;28;20063;-74
2021/07/29 01:18:58;;;;;;;10.50;5.25;;;;;;;26.09;39.89;100133.25;5112091;28;20024;-74
2021/07/29 01:21:28;;;;;;;5.93;5.25;;;;;;;26.08;40.25;100137.38;5112408;28;20032;-74
2021/07/29 01:23:54;;;;;;;5.53;5.03;;;;;;;26.02;40.53;100136.41;5112673;28;20031;-74
2021/07/29 01:26:20;;;;;;;6.95;5.38;;;;;;;26.02;40.95;100133.56;5115784;28;20028;-74
2021/07/29 01:28:45;;;;;;;7.18;5.50;;;;;;;25.99;40.74;100134.47;5115743;28;20024;-74
2021/07/29 01:31:11;;;;;;;6.68;5.38;;;;;;;25.99;41.25;100128.78;5115870;28;20085;-74
2021/07/29 01:33:38;;;;;;;6.88;5.85;;;;;;;25.96;41.27;100121.19;5115596;28;20062;-73
2021/07/29 01:36:04;;;;;;;7.68;6.18;;;;;;;25.83;41.67;100115.63;5115568;28;20032;-74
2021/07/29 01:38:29;;;;;;;7.75;5.35;;;;;;;25.86;41.86;100113.88;5115813;28;20035;-73
2021/07/29 01:40:55;;;;;;;8.45;5.25;;;;;;;25.79;42.04;100119.88;5115493;28;20039;-75
2021/07/29 01:43:21;;;;;;;5.85;5.35;;;;;;;25.74;42.23;100118.44;5115430;28;20032;-74
2021/07/29 01:45:46;;;;;;;5.95;5.10;;;;;;;25.73;42.39;100119.66;5115306;28;20111;-74
2021/07/29 01:48:12;;;;;;;5.97;5.38;;;;;;;25.69;42.51;100126.75;5132477;27;20110;-73
2021/07/29 01:50:38;;;;;;;5.53;5.00;;;;;;;25.64;42.70;100108.22;5115249;28;20114;-74
2021/07/29 01:53:03;;;;;;;6.72;5.78;;;;;;;25.65;42.67;100115.50;5115228;28;20111;-75
2021/07/29 01:55:29;;;;;;;7.95;5.80;;;;;;;25.67;42.80;100103.63;5115453;28;20031;-73
2021/07/29 01:57:54;;;;;;;6.22;5.68;;;;;;;25.69;43.13;100109.66;5115113;28;20508;-73
2021/07/29 02:00:22;;;;;;;7.05;5.80;;;;;;;25.60;43.35;100102.66;5115074;28;20038;-75
2021/07/29 02:02:47;;;;;;;9.98;6.85;;;;;;;25.57;43.20;100097.91;5115033;28;20027;-73
2021/07/29 02:05:13;;;;;;;7.15;6.35;;;;;;;25.70;42.62;100105.56;5114898;28;20024;-74
2021/07/29 02:07:38;;;;;;;8.07;5.70;;;;;;;25.65;42.40;100104.09;5115147;28;20039;-74
2021/07/29 02:10:04;;;;;;;7.45;6.05;;;;;;;25.56;43.02;100107.69;5115129;28;20032;-74
2021/07/29 02:12:30;;;;;;;6.53;5.78;;;;;;;25.54;42.95;100110.22;5114769;28;20076;-73
2021/07/29 02:14:57;;;;;;;8.93;5.88;;;;;;;25.47;42.76;100104.03;5114767;28;20114;-74
2021/07/29 02:17:23;;;;;;;8.20;5.45;;;;;;;25.41;43.00;100106.69;5097159;28;20066;-74
2021/07/29 02:19:49;;;;;;;7.40;6.50;;;;;;;25.36;43.04;100100.81;5114424;28;20067;-74
2021/07/29 02:22:18;;;;;;;22.50;20.05;;;;;;;25.37;42.84;100111.75;5114694;28;20062;-74
2021/07/29 02:24:44;;;;;;;30.83;27.60;;;;;;;25.44;42.09;100108.59;5114813;28;20039;-73
2021/07/29 02:27:09;;;;;;;19.52;17.27;;;;;;;25.43;42.05;100115.56;5114528;28;20031;-72
2021/07/29 02:29:37;;;;;;;21.55;19.05;;;;;;;25.34;42.19;100109.81;5115078;28;20032;-74
2021/07/29 02:32:03;;;;;;;33.50;28.35;;;;;;;25.29;41.99;100094.13;5115402;27;20466;-73
2021/07/29 02:34:29;;;;;;;24.92;21.55;;;;;;;25.21;42.33;100104.22;5114619;28;20478;-74
2021/07/29 02:36:55;;;;;;;16.63;14.50;;;;;;;25.21;42.16;100097.72;5114393;28;20035;-74
2021/07/29 02:39:20;;;;;;;10.80;9.70;;;;;;;25.17;42.23;100109.25;5114319;27;20031;-74
2021/07/29 02:41:46;;;;;;;11.27;9.80;;;;;;;25.13;42.60;100107.78;5114231;28;20083;-73
2021/07/29 02:44:12;;;;;;;10.45;9.40;;;;;;;25.18;42.36;100110.03;5114104;28;20034;-73
2021/07/29 02:46:38;;;;;;;8.30;7.50;;;;;;;25.12;42.66;100106.19;5131775;27;20030;-73
2021/07/29 02:49:04;;;;;;;8.40;7.00;;;;;;;25.01;42.79;100107.38;5114404;28;20436;-74
2021/07/29 02:51:29;;;;;;;8.93;7.93;;;;;;;25.14;42.71;100109.38;5114039;28;20031;-74
2021/07/29 02:53:55;;;;;;;12.70;7.47;;;;;;;25.07;42.72;100108.38;5113974;28;20038;-74
2021/07/29 02:56:20;;;;;;;7.18;6.47;;;;;;;25.01;42.80;100104.53;5114275;28;20023;-73
2021/07/29 02:58:47;;;;;;;6.95;6.25;;;;;;;25.04;43.22;100100.75;5114262;28;20023;-73
2021/07/29 03:01:14;;;;;;;8.07;6.55;;;;;;;25.05;43.56;100108.03;5114422;28;20038;-74
2021/07/29 03:03:40;;;;;;;8.50;6.38;;;;;;;25.06;43.48;100101.09;5097009;28;20115;-74
2021/07/29 03:06:05;;;;;;;9.55;6.75;;;;;;;25.11;43.35;100110.31;5114359;28;20110;-73
2021/07/29 03:08:31;;;;;;;7.35;6.75;;;;;;;25.10;43.74;100114.44;5114047;28;20039;-73
2021/07/29 03:10:58;;;;;;;7.40;6.80;;;;;;;25.07;43.58;100116.94;5114240;28;20046;-73
2021/07/29 03:13:25;;;;;;;14.98;7.95;;;;;;;25.02;43.11;100114.66;5113972;28;20482;-74
2021/07/29 03:15:51;;;;;;;8.77;7.05;;;;;;;25.04;43.19;100123.53;5130375;27;20130;-75
2021/07/29 03:18:16;;;;;;;9.10;6.85;;;;;;;25.02;42.85;100119.53;5130649;27;20110;-74
2021/07/29 03:20:42;;;;;;;7.78;6.95;;;;;;;25.00;43.27;100120.03;5113803;28;20043;-73
2021/07/29 03:23:08;;;;;;;6.40;5.63;;;;;;;24.99;43.16;100109.91;5113772;28;20069;-74
2021/07/29 03:25:34;;;;;;;7.15;6.45;;;;;;;24.99;43.41;100115.59;5113351;28;20031;-74
2021/07/29 03:28:00;;;;;;;8.57;6.18;;;;;;;25.00;43.17;100116.38;5131341;27;20030;-73
2021/07/29 03:30:26;;;;;;;10.77;6.20;;;;;;;25.04;43.12;100117.84;5114299;28;20038;-74
2021/07/29 03:32:52;;;;;;;7.15;6.13;;;;;;;25.06;42.65;100118.19;5113267;28;20019;-74
2021/07/29 03:35:18;;;;;;;7.55;6.13;;;;;;;25.12;42.59;100117.59;5113770;28;20055;-74
2021/07/29 03:37:43;;;;;;;10.20;5.38;;;;;;;25.08;43.04;100117.72;5113521;28;20031;-74
2021/07/29 03:40:09;;;;;;;6.97;5.25;;;;;;;24.97;42.99;100123.78;5113165;28;20088;-74
2021/07/29 03:42:35;;;;;;;7.93;6.05;;;;;;;24.96;43.12;100116.50;5113840;28;20035;-74
2021/07/29 03:45:01;;;;;;;11.35;9.00;;;;;;;24.91;43.14;100125.63;5113041;28;20039;-74
2021/07/29 03:47:27;;;;;;;13.88;9.38;;;;;;;24.89;43.23;100116.78;5130241;27;20066;-74
2021/07/29 03:49:53;;;;;;;10.63;9.02;;;;;;;24.92;43.25;100121.53;5113019;28;20122;-73
2021/07/29 03:52:19;;;;;;;14.15;9.70;;;;;;;24.94;42.95;100119.03;5130068;27;20024;-74
2021/07/29 03:54:45;;;;;;;16.80;9.45;;;;;;;24.78;42.36;100082.25;5113493;28;20039;-74
2021/07/29 03:57:11;;;;;;;12.05;8.02;;;;;;;24.94;42.87;100119.03;5130055;27;20047;-75
2021/07/29 03:59:37;;;;;;;14.88;11.25;;;;;;;24.91;43.23;100124.84;5112874;28;20036;-74
2021/07/29 04:02:09;;;;;;;18.30;16.42;;;;;;;24.93;42.95;100128.84;5112846;28;20471;-74
2021/07/29 04:04:37;;;;;;;18.15;16.20;;;;;;;24.95;42.34;100137.69;5112773;28;20092;-74
2021/07/29 04:07:03;;;;;;;15.07;12.85;;;;;;;25.03;42.88;100136.16;5113298;28;20024;-73
2021/07/29 04:09:30;;;;;;;13.30;10.30;;;;;;;25.04;42.23;100134.91;5112644;28;20390;-74
2021/07/29 04:11:56;;;;;;;11.73;9.32;;;;;;;25.08;42.61;100129.88;5112997;28;20031;-73
2021/07/29 04:14:22;;;;;;;11.68;8.30;;;;;;;25.06;42.29;100129.56;5113263;28;20035;-73
2021/07/29 04:16:47;;;;;;;10.73;9.18;;;;;;;25.13;42.69;100131.34;5112714;28;20047;-73
2021/07/29 04:19:13;;;;;;;10.55;8.30;;;;;;;25.18;42.65;100127.13;5113136;28;20051;-74
2021/07/29 04:21:38;;;;;;;9.10;7.45;;;;;;;25.29;42.03;100122.59;5129934;28;20028;-73
2021/07/29 04:24:04;;;;;;;14.60;7.45;;;;;;;25.46;41.61;100125.22;5112554;28;20051;-74
2021/07/29 04:26:30;;;;;;;12.13;7.07;;;;;;;25.61;41.20;100129.09;5112492;28;20099;-74
2021/07/29 04:28:55;;;;;;;8.05;5.70;;;;;;;25.77;40.47;100123.16;5112814;28;20027;-74
2021/07/29 04:31:21;;;;;;;9.25;5.97;;;;;;;25.92;39.64;100129.09;5112867;28;20028;-74
2021/07/29 04:33:46;;;;;;;5.90;4.75;;;;;;;26.12;39.41;100115.22;5113138;28;20470;-74
2021/07/29 04:36:12;;;;;;;6.18;5.57;;;;;;;26.40;39.24;100118.09;5112821;28;20104;-74
2021/07/29 04:38:37;;;;;;;8.45;5.38;;;;;;;26.67;38.39;100117.34;5112470;28;20104;-74
2021/07/29 04:41:04;;;;;;;9.40;5.32;;;;;;;26.94;37.64;100119.41;5112513;28;20157;-74
2021/07/29 04:43:30;;;;;;;7.07;5.57;;;;;;;27.22;37.34;100114.50;5129831;28;20019;-74
2021/07/29 04:45:56;;;;;;;10.63;5.47;;;;;;;27.55;36.64;100122.31;5112423;28;20024;-73
2021/07/29 04:48:21;;;;;;;6.00;4.40;;;;;;;27.77;36.02;100119.25;5112405;28;20027;-74
2021/07/29 04:50:47;;;;;;;6.03;5.20;;;;;;;28.05;35.44;100119.88;5112816;28;20122;-74
2021/07/29 04:53:12;;;;;;;5.38;4.78;;;;;;;28.38;34.81;100119.84;5112422;28;20326;-75
2021/07/29 04:55:38;;;;;;;5.97;4.75;;;;;;;28.68;34.00;100120.75;5112041;28;20034;-74
2021/07/29 04:58:03;;;;;;;11.05;5.22;;;;;;;28.91;33.82;100119.09;5112741;28;20466;-74
2021/07/29 05:00:32;;;;;;;5.72;4.97;;;;;;;29.05;32.83;100129.03;5116121;28;20032;-74
2021/07/29 05:02:58;;;;;;;8.27;5.10;;;;;;;29.33;33.20;100132.41;5133860;27;20027;-74
2021/07/29 05:05:24;;;;;;;9.02;4.75;;;;;;;29.68;32.89;100124.72;5133502;27;20363;-74
2021/07/29 05:07:51;;;;;;;6.28;4.72;;;;;;;30.04;31.67;100122.63;5116501;28;20023;-74
2021/07/29 05:10:17;;;;;;;7.05;4.82;;;;;;;30.30;31.71;100127.72;5099825;28;20037;-75
2021/07/29 05:12:43;;;;;;;8.02;4.85;;;;;;;30.56;31.19;100127.78;5116599;28;20385;-75
2021/07/29 05:15:08;;;;;;;9.13;5.40;;;;;;;30.85;30.90;100132.63;5116056;28;20027;-75
2021/07/29 05:17:34;;;;;;;9.43;5.20;;;;;;;31.10;30.82;100126.09;5109767;28;20114;-75
2021/07/29 05:20:00;;;;;;;7.47;5.03;;;;;;;31.37;30.39;100130.56;5116160;28;20066;-75
2021/07/29 05:22:25;;;;;;;4.85;4.43;;;;;;;31.79;29.93;100129.84;5116470;28;20031;-74
2021/07/29 05:24:51;;;;;;;6.75;4.95;;;;;;;32.13;29.49;100135.88;5115994;28;20431;-75
2021/07/29 05:27:16;;;;;;;7.95;4.90;;;;;;;32.27;29.62;100137.78;5133491;27;20370;-75
2021/07/29 05:29:44;;;;;;;8.15;5.30;;;;;;;32.40;29.43;100130.81;5115892;28;20386;-75
2021/07/29 05:32:10;;;;;;;5.88;5.18;;;;;;;32.69;29.48;100130.41;5115654;28;20080;-76
2021/07/29 05:34:36;;;;;;;7.45;4.97;;;;;;;32.94;29.15;100134.44;5132820;27;20118;-76
2021/07/29 05:37:01;;;;;;;7.45;4.90;;;;;;;33.38;29.01;100133.72;5116149;28;20030;-75
2021/07/29 05:39:28;;;;;;;6.28;5.00;;;;;;;33.61;28.82;100142.41;5116830;28;20054;-75
2021/07/29 05:41:53;;;;;;;6.32;4.97;;;;;;;33.61;28.83;100136.63;5115659;28;20031;-75
2021/07/29 05:44:19;;;;;;;10.02;5.47;;;;;;;33.91;28.09;100139.00;5116646;28;20530;-76
2021/07/29 05:46:45;;;;;;;10.32;5.10;;;;;;;33.99;28.13;100152.41;5115324;28;20024;-75
2021/07/29 05:49:10;;;;;;;4.65;4.18;;;;;;;34.32;28.14;100150.75;5116242;28;20096;-75
2021/07/29 05:51:36;;;;;;;5.35;4.40;;;;;;;34.49;27.49;100156.50;5115709;28;20027;-76
2021/07/29 05:54:02;;;;;;;8.70;5.50;;;;;;;34.23;27.56;100156.81;5115720;28;20039;-75
2021/07/29 05:56:28;;;;;;;10.27;5.13;;;;;;;34.44;27.34;100157.28;5115306;28;20389;-76
2021/07/29 05:58:54;;;;;;;11.68;6.22;;;;;;;34.40;27.92;100161.22;5116813;28;20039;-75
2021/07/29 06:01:22;;;;;;;7.03;5.15;;;;;;;34.25;27.85;100163.63;5115235;28;20357;-76
2021/07/29 06:03:48;;;;;;;8.55;5.53;;;;;;;34.81;27.39;100166.34;5115363;28;20035;-75
2021/07/29 06:06:13;;;;;;;6.85;5.53;;;;;;;35.09;26.68;100165.44;5115644;28;20032;-75
2021/07/29 06:08:39;;;;;;;8.80;5.65;;;;;;;35.06;25.27;100163.63;5115086;28;20430;-76
2021/07/29 06:11:04;;;;;;;9.02;6.38;;;;;;;35.31;24.35;100161.59;5115155;28;20054;-76
2021/07/29 06:13:31;;;;;;;9.93;5.75;;;;;;;35.85;23.63;100160.94;5132441;27;20038;-75
2021/07/29 06:16:02;;;;;;;7.07;5.50;;;;;;;35.92;23.48;100160.34;5116178;28;20084;-76
2021/07/29 06:18:28;;;;;;;6.07;4.78;;;;;;;36.69;22.38;100165.88;5115110;27;20020;-76
2021/07/29 06:20:54;;;;;;;5.65;4.95;;;;;;;36.92;22.22;100175.09;5115345;28;20477;-75
2021/07/29 06:23:20;;;;;;;9.57;4.88;;;;;;;36.96;21.38;100158.94;5115366;28;20030;-75
2021/07/29 06:25:45;;;;;;;12.18;4.93;;;;;;;37.11;21.62;100172.19;5114563;28;20031;-75
2021/07/29 06:28:15;;;;;;;4.35;3.92;;;;;;;36.91;21.65;100167.72;5114744;28;20024;-76
2021/07/29 06:30:44;;;;;;;9.75;5.32;;;;;;;37.33;21.06;100163.16;5116426;28;20050;-76
2021/07/29 06:33:10;;;;;;;6.50;5.05;;;;;;;37.05;20.85;100174.41;5097603;28;20027;-76
2021/07/29 06:35:36;;;;;;;6.85;5.05;;;;;;;36.67;20.62;100165.66;5114885;28;20374;-75
2021/07/29 06:38:01;;;;;;;5.95;4.57;;;;;;;36.70;20.86;100167.44;5114777;28;20379;-75
2021/07/29 06:40:28;;;;;;;7.78;4.45;;;;;;;36.74;21.12;100167.91;5115279;28;20089;-76
2021/07/29 06:42:53;;;;;;;5.90;5.07;;;;;;;37.23;20.73;100171.50;5114360;28;20031;-76
2021/07/29 06:45:19;;;;;;;6.35;4.75;;;;;;;36.71;21.12;100171.94;5114798;28;20032;-76
2021/07/29 06:47:44;;;;;;;11.43;4.95;;;;;;;36.78;20.73;100170.53;5114242;28;20477;-74
2021/07/29 06:50:11;;;;;;;7.97;5.00;;;;;;;36.97;20.74;100166.34;5114387;28;20063;-74
2021/07/29 06:52:38;;;;;;;10.93;5.38;;;;;;;36.80;21.41;100173.63;5131185;27;20023;-74
2021/07/29 06:55:06;;;;;;;8.30;4.95;;;;;;;37.08;20.57;100164.63;5116032;28;20035;-76
2021/07/29 06:57:31;;;;;;;9.32;4.75;;;;;;;37.32;19.93;100176.09;5115905;28;20612;-75
2021/07/29 06:59:57;;;;;;;5.97;4.47;;;;;;;37.80;19.28;100165.59;5114150;28;20036;-76
2021/07/29 07:02:22;;;;;;;8.38;5.25;;;;;;;38.37;19.16;100171.22;5114253;28;20035;-76
2021/07/29 07:04:48;;;;;;;5.55;4.60;;;;;;;38.37;19.59;100172.00;5113937;28;20023;-76
2021/07/29 07:07:16;;;;;;;8.45;5.32;;;;;;;38.43;19.75;100178.47;5113605;28;20035;-76
2021/07/29 07:09:42;;;;;;;6.70;4.78;;;;;;;39.11;19.29;100177.84;5097102;28;20031;-76
2021/07/29 07:12:09;;;;;;;9.13;5.05;;;;;;;38.26;20.05;100178.00;5113779;28;20474;-76
2021/07/29 07:14:35;;;;;;;6.75;4.40;;;;;;;37.83;19.84;100155.81;5131398;27;20038;-76
2021/07/29 07:17:00;;;;;;;5.35;4.45;;;;;;;37.81;19.10;100175.84;5130657;27;20051;-76
2021/07/29 07:19:26;;;;;;;6.90;4.20;;;;;;;38.22;18.84;100166.69;5113625;28;20028;-76
2021/07/29 07:21:52;;;;;;;6.30;4.07;;;;;;;38.40;18.64;100176.66;5112970;28;20034;-76
2021/07/29 07:24:17;;;;;;;7.68;4.47;;;;;;;38.56;18.16;100171.06;5113526;28;20023;-75
2021/07/29 07:26:43;;;;;;;6.78;5.18;;;;;;;38.05;19.06;100168.34;5113644;28;20028;-76
2021/07/29 07:29:08;;;;;;;12.50;8.38;;;;;;;37.03;20.30;100179.97;5113507;28;20028;-75
2021/07/29 07:31:34;;;;;;;15.23;10.48;;;;;;;36.98;21.00;100173.69;5113128;28;20069;-76
2021/07/29 07:34:00;;;;;;;18.05;12.25;;;;;;;36.68;21.01;100170.09;5114115;28;20076;-75
2021/07/29 07:36:27;;;;;;;19.25;12.25;;;;;;;36.96;21.32;100181.34;5113448;28;20035;-75
2021/07/29 07:38:53;;;;;;;19.63;12.85;;;;;;;37.20;20.39;100184.19;5108745;28;20111;-75
2021/07/29 07:41:19;;;;;;;14.70;9.52;;;;;;;37.46;19.76;100177.75;5113333;28;20028;-75
2021/07/29 07:43:45;;;;;;;9.05;8.05;;;;;;;37.94;19.09;100175.94;5130161;27;20072;-76
2021/07/29 07:46:15;;;;;;;7.68;6.53;;;;;;;37.73;18.66;100177.84;5130626;27;20111;-75
2021/07/29 07:48:42;;;;;;;10.63;8.05;;;;;;;37.47;19.47;100182.22;5115045;28;20392;-75
2021/07/29 07:51:08;;;;;;;8.55;7.65;;;;;;;37.89;19.90;100185.53;5113489;28;20035;-76
2021/07/29 07:53:33;;;;;;;13.77;8.70;;;;;;;37.42;20.44;100188.91;5131052;27;20035;-77
2021/07/29 07:56:03;;;;;;;13.05;8.07;;;;;;;37.75;19.68;100193.38;5113004;28;20035;-76
2021/07/29 07:58:30;;;;;;;9.77;8.00;;;;;;;37.47;19.40;100179.31;5113678;28;20084;-76
2021/07/29 08:00:56;;;;;;;8.80;6.80;;;;;;;37.72;19.17;100191.59;5130161;27;20038;-76
2021/07/29 08:03:23;;;;;;;7.10;5.95;;;;;;;38.07;18.30;100192.59;5113589;28;20437;-76
2021/07/29 08:05:48;;;;;;;12.25;8.32;;;;;;;38.00;19.65;100191.13;5112612;28;20032;-76
2021/07/29 08:08:14;;;;;;;9.43;7.45;;;;;;;36.86;21.20;100201.25;5129676;27;20027;-75
2021/07/29 08:10:40;;;;;;;11.27;7.03;;;;;;;36.95;21.60;100197.97;5112866;28;20031;-75
2021/07/29 08:13:07;;;;;;;14.52;7.05;;;;;;;37.50;20.96;100197.72;5112814;28;20032;-76
2021/07/29 08:15:33;;;;;;;11.23;6.25;;;;;;;37.33;20.35;100197.97;5112550;28;20043;-75
2021/07/29 08:17:59;;;;;;;9.85;6.38;;;;;;;37.92;20.30;100201.81;5113264;28;20184;-74
2021/07/29 08:20:25;;;;;;;11.60;6.75;;;;;;;38.14;19.54;100199.84;5112857;28;20529;-75
2021/07/29 08:22:54;;;;;;;10.98;6.82;;;;;;;37.48;20.87;100189.59;5112683;28;20020;-75
2021/07/29 08:25:21;;;;;;;14.35;6.53;;;;;;;38.37;20.20;100195.22;5112829;28;20031;-75
2021/07/29 08:27:48;;;;;;;10.32;6.22;;;;;;;38.83;19.78;100201.72;5112796;28;20030;-75
2021/07/29 08:30:15;;;;;;;11.32;6.80;;;;;;;37.87;20.67;100205.59;5112651;28;20031;-75
2021/07/29 08:32:44;;;;;;;11.38;6.50;;;;;;;37.93;20.26;100202.63;5113651;28;20051;-75
2021/07/29 08:35:11;;;;;;;11.10;6.15;;;;;;;38.05;20.26;100200.31;5117481;28;20035;-76
2021/07/29 08:37:44;;;;;;;7.35;6.40;;;;;;;38.36;20.11;100205.28;5117648;28;20407;-75
2021/07/29 08:40:11;;;;;;;9.38;6.22;;;;;;;38.54;20.38;100206.53;5118021;27;20535;-75
2021/07/29 08:42:36;;;;;;;10.30;6.38;;;;;;;38.49;20.39;100208.19;5118598;28;20469;-75
2021/07/29 08:45:03;;;;;;;9.90;5.13;;;;;;;38.17;21.04;100195.84;5116645;28;20039;-75
2021/07/29 08:47:32;;;;;;;13.50;5.80;;;;;;;37.97;21.18;100203.84;5116903;28;20035;-75
2021/07/29 08:50:03;;;;;;;6.30;5.63;;;;;;;37.60;22.27;100198.13;5117120;28;20023;-75
2021/07/29 08:52:28;;;;;;;10.18;6.18;;;;;;;37.98;21.46;100205.44;5100466;28;20031;-76
2021/07/29 08:54:54;;;;;;;5.75;5.10;;;;;;;38.34;21.28;100205.06;5116733;28;20054;-75
2021/07/29 08:57:31;;;;;;;7.13;5.50;;;;;;;37.76;21.00;100203.63;5116783;28;20027;-75
2021/07/29 09:00:01;;;;;;;8.38;5.72;;;;;;;37.30;21.38;100204.88;5116684;28;20023;-75
2021/07/29 09:02:28;;;;;;;15.20;5.10;;;;;;;36.94;21.96;100199.31;5116142;28;20028;-75
2021/07/29 09:05:23;;;;;;;5.63;5.10;;;;;;;36.79;22.47;100187.34;5116312;28;20027;-75
2021/07/29 09:08:06;;;;;;;9.30;5.10;;;;;;;36.51;22.60;100189.81;5113774;28;20116;-75
2021/07/29 09:10:32;;;;;;;6.25;5.50;;;;;;;36.52;21.90;100191.38;5116248;28;20027;-76
2021/07/29 09:13:06;;;;;;;5.65;4.85;;;;;;;36.66;22.36;100190.94;5133128;27;20031;-75
2021/07/29 09:15:32;;;;;;;6.68;4.97;;;;;;;36.83;22.09;100184.16;5116164;28;20051;-75
2021/07/29 09:17:57;;;;;;;8.82;5.20;;;;;;;37.16;21.44;100180.03;5116489;28;20493;-75
2021/07/29 09:20:23;;;;;;;5.38;4.88;;;;;;;37.77;20.82;100181.22;5115986;28;20035;-75
2021/07/29 09:22:51;;;;;;;7.97;4.93;;;;;;;37.50;21.08;100183.22;5116480;28;20036;-75
2021/07/29 09:25:19;;;;;;;6.85;4.97;;;;;;;37.56;21.74;100186.06;5115828;28;20028;-75
2021/07/29 09:27:49;;;;;;;6.03;4.65;;;;;;;37.41;21.60;100169.94;5133101;27;20081;-75
2021/07/29 09:30:23;;;;;;;7.75;4.75;;;;;;;37.90;20.26;100175.47;5116473;28;20024;-75
2021/07/29 09:33:14;;;;;;;9.27;5.78;;;;;;;38.45;20.62;100183.72;5116630;28;20067;-75
2021/07/29 09:35:44;;;;;;;6.72;5.22;;;;;;;38.18;20.94;100168.34;5115856;28;20382;-76
2021/07/29 09:38:24;;;;;;;13.43;5.33;;;;;;;38.32;20.66;100175.00;5116659;28;20034;-75
2021/07/29 09:41:03;;;;;;;6.80;5.00;;;;;;;38.90;20.22;100177.78;5098593;28;20034;-75
2021/07/29 09:43:37;;;;;;;9.27;5.38;;;;;;;38.33;20.22;100177.34;5115539;28;20038;-75
2021/07/29 09:46:16;;;;;;;5.45;4.05;;;;;;;39.01;19.32;100174.63;5114854;28;20024;-75
2021/07/29 09:48:43;;;;;;;6.20;4.15;;;;;;;39.46;18.57;100179.41;5115718;28;20088;-75
2021/07/29 09:51:10;;;;;;;10.70;5.03;;;;;;;39.23;18.96;100184.22;5115465;28;20116;-75
2021/07/29 09:53:36;;;;;;;7.35;4.85;;;;;;;39.41;17.10;100185.38;5115433;28;20035;-75
2021/07/29 09:56:14;;;;;;;12.82;4.53;;;;;;;38.99;18.32;100179.44;5115668;28;20105;-75
2021/07/29 09:58:41;;;;;;;6.00;4.32;;;;;;;39.04;17.65;100181.44;5116847;28;20038;-76
2021/07/29 10:01:07;;;;;;;5.15;3.75;;;;;;;38.96;16.58;100180.56;5098887;28;20034;-75
2021/07/29 10:03:35;;;;;;;6.65;4.45;;;;;;;38.98;17.31;100178.66;5132358;27;20028;-75
2021/07/29 10:06:12;;;;;;;5.00;3.83;;;;;;;39.47;16.86;100189.75;5114977;28;20047;-75
2021/07/29 10:08:42;;;;;;;7.60;4.30;;;;;;;39.25;16.89;100193.16;5115019;28;20027;-75
2021/07/29 10:11:12;;;;;;;7.65;4.00;;;;;;;39.85;15.79;100183.53;5115363;28;20393;-75
2021/07/29 10:13:39;;;;;;;6.80;3.42;;;;;;;40.05;16.01;100187.75;5115082;28;20386;-76
2021/07/29 10:16:06;;;;;;;5.97;3.72;;;;;;;40.21;15.77;100186.56;5115001;28;20052;-76
2021/07/29 10:18:50;;;;;;;4.55;3.75;;;;;;;40.49;13.95;100174.16;5115277;28;20023;-76
2021/07/29 10:21:22;;;;;;;4.38;3.30;;;;;;;40.00;14.44;100186.56;5114722;28;20027;-76
2021/07/29 10:23:52;;;;;;;7.10;3.00;;;;;;;40.60;14.11;100178.88;5115593;28;20051;-76
2021/07/29 10:26:18;;;;;;;5.07;3.67;;;;;;;40.29;14.19;100186.63;5114896;27;20047;-76
2021/07/29 10:28:44;;;;;;;8.65;3.78;;;;;;;39.64;14.91;100191.47;5114677;28;20031;-76
2021/07/29 10:31:12;;;;;;;9.10;3.55;;;;;;;38.95;15.81;100182.69;5097653;28;20035;-75
2021/07/29 10:33:37;;;;;;;7.30;3.53;;;;;;;39.55;14.91;100181.06;5114618;28;20111;-76
2021/07/29 10:36:04;;;;;;;3.22;3.00;;;;;;;40.53;14.31;100180.38;5131896;27;20055;-75
2021/07/29 10:38:39;;;;;;;3.92;3.20;;;;;;;40.53;13.54;100165.03;5131625;27;20016;-75
2021/07/29 10:41:23;;;;;;;3.92;3.35;;;;;;;40.24;13.79;100185.41;5114380;28;20028;-75
2021/07/29 10:43:49;;;;;;;5.32;2.90;;;;;;;40.05;13.67;100182.72;5115219;28;20036;-76
2021/07/29 10:46:15;;;;;;;3.15;2.85;;;;;;;39.63;13.93;100173.22;5097440;28;20038;-75
2021/07/29 10:48:41;;;;;;;6.88;2.95;;;;;;;39.60;14.17;100167.72;5114319;28;20027;-75
2021/07/29 10:51:11;;;;;;;8.23;3.05;;;;;;;39.59;14.37;100166.19;5114825;28;20127;-75
2021/07/29 10:53:41;;;;;;;5.43;3.67;;;;;;;39.27;14.49;100176.72;5115661;28;20028;-75
2021/07/29 10:56:08;;;;;;;4.68;3.08;;;;;;;39.42;14.22;100172.38;5113435;28;20036;-74
2021/07/29 10:58:40;;;;;;;8.88;3.05;;;;;;;40.08;14.07;100174.22;5130829;27;20076;-75
2021/07/29 11:01:05;;;;;;;4.22;2.78;;;;;;;38.66;14.96;100169.28;5115568;28;20423;-75
2021/07/29 11:03:31;;;;;;;6.43;2.65;;;;;;;39.44;14.36;100161.75;5114235;28;20023;-76
2021/07/29 11:06:05;;;;;;;5.18;2.80;;;;;;;39.75;14.64;100156.25;5113205;28;20110;-75
2021/07/29 11:08:31;;;;;;;7.78;3.42;;;;;;;39.81;14.51;100160.59;5115014;28;20035;-75
2021/07/29 11:10:59;;;;;;;6.13;3.38;;;;;;;40.68;14.09;100150.53;5113619;28;20027;-75
2021/07/29 11:13:28;;;;;;;7.18;3.40;;;;;;;40.83;13.79;100146.91;5113873;28;20028;-76
2021/07/29 11:15:55;;;;;;;5.22;3.17;;;;;;;40.07;14.12;100144.31;5130774;27;20493;-76
2021/07/29 11:18:21;;;;;;;11.38;4.38;;;;;;;40.65;13.91;100130.50;5130857;27;20027;-76
2021/07/29 11:20:48;;;;;;;5.93;3.70;;;;;;;40.40;13.78;100133.06;5113746;28;20101;-75
2021/07/29 11:23:16;;;;;;;7.88;4.25;;;;;;;40.49;13.93;100130.44;5113110;28;20023;-74